sensor_id;sensor_type;location;lat;lon;timestamp;P1;durP1;ratioP1;P2;durP2;ratioP2
20365;SDS011;10341;49.894;8.822;2023-04-15T00:00:14;8.27;;;2.90;;
20365;SDS011;10341;49.894;8.822;2023-04-15T00:05:37;5.25;;;2.63;;
20365;SDS011;10341;49.894;8.822;2023-04-15T00:10:56;4.47;;;2.80;;
20365;SDS011;10341;49.894;8.822;2023-04-15T00:16:20;4.10;;;2.70;;
20365;SDS011;10341;49.894;8.822;2023-04-15T00:21:39;5.13;;;2.78;;
20365;SDS011;10341;49.894;8.822;2023-04-15T00:26:59;6.13;;;3.28;;
20365;SDS011;10341;49.894;8.822;2023-04-15T00:32:18;5.80;;;3.35;;
20365;SDS011;10341;49.894;8.822;2023-04-15T00:37:38;8.70;;;3.65;;
20365;SDS011;10341;49.894;8.822;2023-04-15T00:42:57;9.05;;;3.40;;
20365;SDS011;10341;49.894;8.822;2023-04-15T00:48:17;5.95;;;3.38;;
20365;SDS011;10341;49.894;8.822;2023-04-15T00:53:36;7.55;;;3.20;;
20365;SDS011;10341;49.894;8.822;2023-04-15T00:58:56;7.68;;;3.75;;
20365;SDS011;10341;49.894;8.822;2023-04-15T01:04:16;8.18;;;3.03;;
20365;SDS011;10341;49.894;8.822;2023-04-15T01:09:36;5.75;;;3.05;;
20365;SDS011;10341;49.894;8.822;2023-04-15T01:14:55;5.47;;;3.35;;
20365;SDS011;10341;49.894;8.822;2023-04-15T01:25:34;4.77;;;2.90;;
20365;SDS011;10341;49.894;8.822;2023-04-15T01:31:10;7.28;;;3.33;;
20365;SDS011;10341;49.894;8.822;2023-04-15T01:36:31;6.43;;;3.55;;
20365;SDS011;10341;49.894;8.822;2023-04-15T01:41:51;7.05;;;3.85;;
20365;SDS011;10341;49.894;8.822;2023-04-15T01:47:10;7.20;;;3.60;;
20365;SDS011;10341;49.894;8.822;2023-04-15T01:52:30;5.47;;;3.30;;
20365;SDS011;10341;49.894;8.822;2023-04-15T01:57:49;5.95;;;3.80;;
20365;SDS011;10341;49.894;8.822;2023-04-15T02:03:10;9.15;;;3.95;;
20365;SDS011;10341;49.894;8.822;2023-04-15T02:08:29;6.83;;;3.57;;
20365;SDS011;10341;49.894;8.822;2023-04-15T02:13:48;7.65;;;3.80;;
20365;SDS011;10341;49.894;8.822;2023-04-15T02:24:29;6.28;;;3.60;;
20365;SDS011;10341;49.894;8.822;2023-04-15T02:29:49;8.98;;;4.50;;
20365;SDS011;10341;49.894;8.822;2023-04-15T02:35:11;7.00;;;3.90;;
20365;SDS011;10341;49.894;8.822;2023-04-15T02:40:30;8.00;;;3.65;;
20365;SDS011;10341;49.894;8.822;2023-04-15T02:45:50;7.18;;;3.60;;
20365;SDS011;10341;49.894;8.822;2023-04-15T02:56:33;7.47;;;4.13;;
20365;SDS011;10341;49.894;8.822;2023-04-15T03:01:52;10.57;;;4.22;;
20365;SDS011;10341;49.894;8.822;2023-04-15T03:07:13;7.00;;;3.78;;
20365;SDS011;10341;49.894;8.822;2023-04-15T03:12:32;8.52;;;3.97;;
20365;SDS011;10341;49.894;8.822;2023-04-15T03:23:12;8.20;;;3.97;;
20365;SDS011;10341;49.894;8.822;2023-04-15T03:33:51;8.13;;;3.90;;
20365;SDS011;10341;49.894;8.822;2023-04-15T03:44:31;6.13;;;3.27;;
20365;SDS011;10341;49.894;8.822;2023-04-15T03:55:09;8.00;;;3.97;;
20365;SDS011;10341;49.894;8.822;2023-04-15T04:05:48;8.75;;;4.38;;
20365;SDS011;10341;49.894;8.822;2023-04-15T04:11:08;6.97;;;3.88;;
20365;SDS011;10341;49.894;8.822;2023-04-15T04:16:27;6.27;;;4.10;;
20365;SDS011;10341;49.894;8.822;2023-04-15T04:21:46;5.40;;;3.80;;
20365;SDS011;10341;49.894;8.822;2023-04-15T04:27:05;7.10;;;4.18;;
20365;SDS011;10341;49.894;8.822;2023-04-15T04:32:24;7.18;;;4.85;;
20365;SDS011;10341;49.894;8.822;2023-04-15T04:43:03;8.25;;;4.78;;
20365;SDS011;10341;49.894;8.822;2023-04-15T04:48:22;8.90;;;5.20;;
20365;SDS011;10341;49.894;8.822;2023-04-15T04:59:01;8.80;;;4.97;;
20365;SDS011;10341;49.894;8.822;2023-04-15T05:04:20;8.73;;;5.15;;
20365;SDS011;10341;49.894;8.822;2023-04-15T05:09:39;11.10;;;4.55;;
20365;SDS011;10341;49.894;8.822;2023-04-15T05:20:18;7.93;;;4.63;;
20365;SDS011;10341;49.894;8.822;2023-04-15T05:25:37;11.60;;;5.03;;
20365;SDS011;10341;49.894;8.822;2023-04-15T05:30:57;10.50;;;5.40;;
20365;SDS011;10341;49.894;8.822;2023-04-15T05:36:16;9.50;;;4.93;;
20365;SDS011;10341;49.894;8.822;2023-04-15T05:46:55;14.63;;;6.20;;
20365;SDS011;10341;49.894;8.822;2023-04-15T05:52:15;9.57;;;5.15;;
20365;SDS011;10341;49.894;8.822;2023-04-15T05:57:35;9.57;;;4.70;;
20365;SDS011;10341;49.894;8.822;2023-04-15T06:02:55;8.73;;;5.28;;
20365;SDS011;10341;49.894;8.822;2023-04-15T06:08:16;11.05;;;4.88;;
20365;SDS011;10341;49.894;8.822;2023-04-15T06:13:36;8.43;;;4.70;;
20365;SDS011;10341;49.894;8.822;2023-04-15T06:18:55;9.20;;;4.90;;
20365;SDS011;10341;49.894;8.822;2023-04-15T06:24:14;11.53;;;5.00;;
20365;SDS011;10341;49.894;8.822;2023-04-15T06:29:33;7.10;;;4.25;;
20365;SDS011;10341;49.894;8.822;2023-04-15T06:34:53;7.70;;;4.50;;
20365;SDS011;10341;49.894;8.822;2023-04-15T06:40:12;8.90;;;4.80;;
20365;SDS011;10341;49.894;8.822;2023-04-15T06:45:32;9.07;;;4.43;;
20365;SDS011;10341;49.894;8.822;2023-04-15T06:50:51;6.55;;;4.53;;
20365;SDS011;10341;49.894;8.822;2023-04-15T06:56:10;7.67;;;4.47;;
20365;SDS011;10341;49.894;8.822;2023-04-15T07:01:29;5.32;;;4.10;;
20365;SDS011;10341;49.894;8.822;2023-04-15T07:06:49;6.65;;;4.40;;
20365;SDS011;10341;49.894;8.822;2023-04-15T07:12:08;6.47;;;4.00;;
20365;SDS011;10341;49.894;8.822;2023-04-15T07:17:28;5.97;;;3.60;;
20365;SDS011;10341;49.894;8.822;2023-04-15T07:22:47;4.95;;;3.65;;
20365;SDS011;10341;49.894;8.822;2023-04-15T07:28:06;6.95;;;4.63;;
20365;SDS011;10341;49.894;8.822;2023-04-15T07:33:26;7.10;;;4.72;;
20365;SDS011;10341;49.894;8.822;2023-04-15T07:38:46;6.00;;;4.18;;
20365;SDS011;10341;49.894;8.822;2023-04-15T07:44:05;6.30;;;4.33;;
20365;SDS011;10341;49.894;8.822;2023-04-15T07:49:24;6.83;;;4.40;;
20365;SDS011;10341;49.894;8.822;2023-04-15T07:54:44;7.43;;;4.57;;
20365;SDS011;10341;49.894;8.822;2023-04-15T08:00:03;6.75;;;4.60;;
20365;SDS011;10341;49.894;8.822;2023-04-15T08:05:31;6.50;;;4.55;;
20365;SDS011;10341;49.894;8.822;2023-04-15T08:10:50;6.70;;;4.87;;
20365;SDS011;10341;49.894;8.822;2023-04-15T08:21:40;9.23;;;5.10;;
20365;SDS011;10341;49.894;8.822;2023-04-15T08:26:59;7.63;;;4.83;;
20365;SDS011;10341;49.894;8.822;2023-04-15T08:32:21;6.75;;;4.90;;
20365;SDS011;10341;49.894;8.822;2023-04-15T08:37:40;7.47;;;4.90;;
20365;SDS011;10341;49.894;8.822;2023-04-15T08:43:00;7.10;;;4.32;;
20365;SDS011;10341;49.894;8.822;2023-04-15T08:48:24;6.85;;;4.57;;
20365;SDS011;10341;49.894;8.822;2023-04-15T08:53:46;6.03;;;3.92;;
20365;SDS011;10341;49.894;8.822;2023-04-15T08:59:07;5.40;;;4.00;;
20365;SDS011;10341;49.894;8.822;2023-04-15T09:04:27;6.05;;;3.30;;
20365;SDS011;10341;49.894;8.822;2023-04-15T09:15:07;4.35;;;3.00;;
20365;SDS011;10341;49.894;8.822;2023-04-15T09:20:30;5.97;;;3.72;;
20365;SDS011;10341;49.894;8.822;2023-04-15T09:25:58;3.20;;;2.13;;
20365;SDS011;10341;49.894;8.822;2023-04-15T09:42:09;2.60;;;2.10;;
20365;SDS011;10341;49.894;8.822;2023-04-15T09:47:29;2.30;;;1.90;;
20365;SDS011;10341;49.894;8.822;2023-04-15T09:52:49;2.63;;;1.80;;
20365;SDS011;10341;49.894;8.822;2023-04-15T09:58:10;3.27;;;1.93;;
20365;SDS011;10341;49.894;8.822;2023-04-15T10:03:43;1.70;;;1.40;;
20365;SDS011;10341;49.894;8.822;2023-04-15T10:09:04;3.55;;;1.58;;
20365;SDS011;10341;49.894;8.822;2023-04-15T10:14:25;2.22;;;1.52;;
20365;SDS011;10341;49.894;8.822;2023-04-15T10:19:48;3.17;;;2.30;;
20365;SDS011;10341;49.894;8.822;2023-04-15T10:25:11;2.67;;;2.40;;
20365;SDS011;10341;49.894;8.822;2023-04-15T10:30:33;2.60;;;2.13;;
20365;SDS011;10341;49.894;8.822;2023-04-15T10:35:54;2.50;;;1.90;;
20365;SDS011;10341;49.894;8.822;2023-04-15T10:41:18;3.35;;;2.03;;
20365;SDS011;10341;49.894;8.822;2023-04-15T10:46:42;2.45;;;1.95;;
20365;SDS011;10341;49.894;8.822;2023-04-15T10:52:03;3.38;;;1.75;;
20365;SDS011;10341;49.894;8.822;2023-04-15T10:57:22;3.55;;;1.90;;
20365;SDS011;10341;49.894;8.822;2023-04-15T11:02:47;3.67;;;1.90;;
20365;SDS011;10341;49.894;8.822;2023-04-15T11:08:17;2.78;;;1.90;;
20365;SDS011;10341;49.894;8.822;2023-04-15T11:13:46;3.00;;;1.50;;
20365;SDS011;10341;49.894;8.822;2023-04-15T11:19:07;1.98;;;1.55;;
20365;SDS011;10341;49.894;8.822;2023-04-15T11:24:27;2.58;;;1.88;;
20365;SDS011;10341;49.894;8.822;2023-04-15T11:29:46;2.53;;;1.25;;
20365;SDS011;10341;49.894;8.822;2023-04-15T11:35:06;3.10;;;1.50;;
20365;SDS011;10341;49.894;8.822;2023-04-15T11:40:28;2.43;;;1.73;;
20365;SDS011;10341;49.894;8.822;2023-04-15T11:51:14;2.67;;;1.83;;
20365;SDS011;10341;49.894;8.822;2023-04-15T11:56:33;2.78;;;1.73;;
20365;SDS011;10341;49.894;8.822;2023-04-15T12:01:53;1.63;;;1.53;;
20365;SDS011;10341;49.894;8.822;2023-04-15T12:07:12;2.20;;;1.77;;
20365;SDS011;10341;49.894;8.822;2023-04-15T12:12:32;3.20;;;2.23;;
20365;SDS011;10341;49.894;8.822;2023-04-15T12:17:53;3.08;;;1.65;;
20365;SDS011;10341;49.894;8.822;2023-04-15T12:23:12;5.10;;;1.83;;
20365;SDS011;10341;49.894;8.822;2023-04-15T12:28:37;2.88;;;1.90;;
20365;SDS011;10341;49.894;8.822;2023-04-15T12:33:59;3.08;;;1.70;;
20365;SDS011;10341;49.894;8.822;2023-04-15T12:39:23;2.22;;;1.95;;
20365;SDS011;10341;49.894;8.822;2023-04-15T12:44:43;4.57;;;1.80;;
20365;SDS011;10341;49.894;8.822;2023-04-15T12:50:03;2.47;;;1.77;;
20365;SDS011;10341;49.894;8.822;2023-04-15T13:00:42;2.50;;;1.90;;
20365;SDS011;10341;49.894;8.822;2023-04-15T13:06:02;2.75;;;1.77;;
20365;SDS011;10341;49.894;8.822;2023-04-15T13:11:23;3.53;;;1.70;;
20365;SDS011;10341;49.894;8.822;2023-04-15T13:22:02;2.72;;;1.92;;
20365;SDS011;10341;49.894;8.822;2023-04-15T13:27:21;4.85;;;2.55;;
20365;SDS011;10341;49.894;8.822;2023-04-15T13:32:41;3.50;;;2.63;;
20365;SDS011;10341;49.894;8.822;2023-04-15T13:38:01;2.70;;;2.30;;
20365;SDS011;10341;49.894;8.822;2023-04-15T13:43:20;3.50;;;2.78;;
20365;SDS011;10341;49.894;8.822;2023-04-15T13:48:39;5.68;;;2.40;;
20365;SDS011;10341;49.894;8.822;2023-04-15T13:59:18;2.75;;;2.08;;
20365;SDS011;10341;49.894;8.822;2023-04-15T14:04:37;3.13;;;2.83;;
20365;SDS011;10341;49.894;8.822;2023-04-15T14:09:57;3.13;;;2.63;;
20365;SDS011;10341;49.894;8.822;2023-04-15T14:15:17;2.47;;;2.10;;
20365;SDS011;10341;49.894;8.822;2023-04-15T14:20:36;3.67;;;2.05;;
20365;SDS011;10341;49.894;8.822;2023-04-15T14:25:56;4.10;;;2.30;;
20365;SDS011;10341;49.894;8.822;2023-04-15T14:31:16;2.43;;;1.60;;
20365;SDS011;10341;49.894;8.822;2023-04-15T14:36:36;3.08;;;2.53;;
20365;SDS011;10341;49.894;8.822;2023-04-15T14:41:56;1.35;;;1.25;;
20365;SDS011;10341;49.894;8.822;2023-04-15T14:47:15;2.00;;;1.13;;
20365;SDS011;10341;49.894;8.822;2023-04-15T14:52:34;1.08;;;0.80;;
20365;SDS011;10341;49.894;8.822;2023-04-15T14:57:56;1.77;;;1.05;;
20365;SDS011;10341;49.894;8.822;2023-04-15T15:03:16;0.60;;;0.60;;
20365;SDS011;10341;49.894;8.822;2023-04-15T15:08:35;1.67;;;0.83;;
20365;SDS011;10341;49.894;8.822;2023-04-15T15:13:55;1.10;;;1.00;;
20365;SDS011;10341;49.894;8.822;2023-04-15T15:19:14;1.00;;;0.90;;
20365;SDS011;10341;49.894;8.822;2023-04-15T15:24:34;0.93;;;0.82;;
20365;SDS011;10341;49.894;8.822;2023-04-15T15:29:54;1.00;;;0.93;;
20365;SDS011;10341;49.894;8.822;2023-04-15T15:40:33;1.50;;;1.15;;
20365;SDS011;10341;49.894;8.822;2023-04-15T15:45:53;1.15;;;1.05;;
20365;SDS011;10341;49.894;8.822;2023-04-15T15:51:13;1.40;;;1.30;;
20365;SDS011;10341;49.894;8.822;2023-04-15T15:56:32;1.23;;;1.13;;
20365;SDS011;10341;49.894;8.822;2023-04-15T16:01:52;1.58;;;1.48;;
20365;SDS011;10341;49.894;8.822;2023-04-15T16:07:12;1.02;;;0.95;;
20365;SDS011;10341;49.894;8.822;2023-04-15T16:12:33;1.27;;;1.17;;
20365;SDS011;10341;49.894;8.822;2023-04-15T16:17:53;1.60;;;1.30;;
20365;SDS011;10341;49.894;8.822;2023-04-15T16:23:14;2.85;;;1.83;;
20365;SDS011;10341;49.894;8.822;2023-04-15T16:28:34;1.48;;;1.25;;
20365;SDS011;10341;49.894;8.822;2023-04-15T16:33:53;1.20;;;1.10;;
20365;SDS011;10341;49.894;8.822;2023-04-15T16:39:13;3.05;;;1.23;;
20365;SDS011;10341;49.894;8.822;2023-04-15T16:44:32;1.87;;;1.37;;
20365;SDS011;10341;49.894;8.822;2023-04-15T16:49:52;1.98;;;1.33;;
20365;SDS011;10341;49.894;8.822;2023-04-15T16:55:11;1.73;;;1.10;;
20365;SDS011;10341;49.894;8.822;2023-04-15T17:00:31;1.33;;;1.15;;
20365;SDS011;10341;49.894;8.822;2023-04-15T17:05:53;2.58;;;1.35;;
20365;SDS011;10341;49.894;8.822;2023-04-15T17:11:13;1.88;;;1.23;;
20365;SDS011;10341;49.894;8.822;2023-04-15T17:16:33;1.42;;;1.33;;
20365;SDS011;10341;49.894;8.822;2023-04-15T17:21:52;2.30;;;1.67;;
20365;SDS011;10341;49.894;8.822;2023-04-15T17:27:12;2.88;;;2.00;;
20365;SDS011;10341;49.894;8.822;2023-04-15T17:32:31;2.35;;;1.80;;
20365;SDS011;10341;49.894;8.822;2023-04-15T17:37:52;3.13;;;1.88;;
20365;SDS011;10341;49.894;8.822;2023-04-15T17:43:11;2.13;;;1.85;;
20365;SDS011;10341;49.894;8.822;2023-04-15T17:48:31;2.92;;;2.20;;
20365;SDS011;10341;49.894;8.822;2023-04-15T17:53:51;2.33;;;2.13;;
20365;SDS011;10341;49.894;8.822;2023-04-15T17:59:11;4.25;;;2.22;;
20365;SDS011;10341;49.894;8.822;2023-04-15T18:04:30;3.70;;;2.83;;
20365;SDS011;10341;49.894;8.822;2023-04-15T18:09:50;2.72;;;2.13;;
20365;SDS011;10341;49.894;8.822;2023-04-15T18:15:11;3.40;;;2.65;;
20365;SDS011;10341;49.894;8.822;2023-04-15T18:20:32;3.20;;;2.60;;
20365;SDS011;10341;49.894;8.822;2023-04-15T18:25:52;2.80;;;2.30;;
20365;SDS011;10341;49.894;8.822;2023-04-15T18:31:12;4.30;;;2.85;;
20365;SDS011;10341;49.894;8.822;2023-04-15T18:36:31;2.80;;;2.50;;
20365;SDS011;10341;49.894;8.822;2023-04-15T18:41:51;4.53;;;2.75;;
20365;SDS011;10341;49.894;8.822;2023-04-15T18:47:11;4.65;;;2.28;;
20365;SDS011;10341;49.894;8.822;2023-04-15T18:52:31;5.15;;;2.50;;
20365;SDS011;10341;49.894;8.822;2023-04-15T18:57:51;3.00;;;1.90;;
20365;SDS011;10341;49.894;8.822;2023-04-15T19:03:11;3.03;;;1.73;;
20365;SDS011;10341;49.894;8.822;2023-04-15T19:08:31;3.33;;;1.90;;
20365;SDS011;10341;49.894;8.822;2023-04-15T19:13:50;1.85;;;1.48;;
20365;SDS011;10341;49.894;8.822;2023-04-15T19:19:10;3.30;;;1.73;;
20365;SDS011;10341;49.894;8.822;2023-04-15T19:24:32;2.03;;;1.77;;
20365;SDS011;10341;49.894;8.822;2023-04-15T19:29:51;1.88;;;1.67;;
20365;SDS011;10341;49.894;8.822;2023-04-15T19:35:11;3.20;;;2.05;;
20365;SDS011;10341;49.894;8.822;2023-04-15T19:40:31;1.88;;;1.52;;
20365;SDS011;10341;49.894;8.822;2023-04-15T19:45:51;2.92;;;1.85;;
20365;SDS011;10341;49.894;8.822;2023-04-15T19:51:12;2.50;;;2.00;;
20365;SDS011;10341;49.894;8.822;2023-04-15T19:56:32;3.70;;;2.03;;
20365;SDS011;10341;49.894;8.822;2023-04-15T20:01:52;4.15;;;2.28;;
20365;SDS011;10341;49.894;8.822;2023-04-15T20:07:11;3.80;;;2.92;;
20365;SDS011;10341;49.894;8.822;2023-04-15T20:12:31;8.40;;;5.50;;
20365;SDS011;10341;49.894;8.822;2023-04-15T20:17:50;8.88;;;6.35;;
20365;SDS011;10341;49.894;8.822;2023-04-15T20:23:10;9.52;;;6.15;;
20365;SDS011;10341;49.894;8.822;2023-04-15T20:28:29;11.35;;;7.35;;
20365;SDS011;10341;49.894;8.822;2023-04-15T20:33:49;13.35;;;8.05;;
20365;SDS011;10341;49.894;8.822;2023-04-15T20:39:09;11.52;;;7.47;;
20365;SDS011;10341;49.894;8.822;2023-04-15T20:44:28;14.43;;;7.70;;
20365;SDS011;10341;49.894;8.822;2023-04-15T20:49:48;12.82;;;7.15;;
20365;SDS011;10341;49.894;8.822;2023-04-15T20:55:07;9.98;;;6.63;;
20365;SDS011;10341;49.894;8.822;2023-04-15T21:00:27;12.82;;;7.47;;
20365;SDS011;10341;49.894;8.822;2023-04-15T21:05:47;11.68;;;7.22;;
20365;SDS011;10341;49.894;8.822;2023-04-15T21:11:06;13.27;;;7.43;;
20365;SDS011;10341;49.894;8.822;2023-04-15T21:16:26;14.70;;;8.15;;
20365;SDS011;10341;49.894;8.822;2023-04-15T21:21:46;11.73;;;7.45;;
20365;SDS011;10341;49.894;8.822;2023-04-15T21:27:05;13.43;;;7.43;;
20365;SDS011;10341;49.894;8.822;2023-04-15T21:32:25;11.43;;;7.43;;
20365;SDS011;10341;49.894;8.822;2023-04-15T21:37:44;10.73;;;6.80;;
20365;SDS011;10341;49.894;8.822;2023-04-15T21:43:04;11.63;;;7.35;;
20365;SDS011;10341;49.894;8.822;2023-04-15T21:48:26;10.48;;;6.25;;
20365;SDS011;10341;49.894;8.822;2023-04-15T21:53:46;11.10;;;6.78;;
20365;SDS011;10341;49.894;8.822;2023-04-15T21:59:05;12.35;;;6.40;;
20365;SDS011;10341;49.894;8.822;2023-04-15T22:04:25;9.77;;;5.67;;
20365;SDS011;10341;49.894;8.822;2023-04-15T22:09:44;10.07;;;5.78;;
20365;SDS011;10341;49.894;8.822;2023-04-15T22:15:04;9.27;;;5.60;;
20365;SDS011;10341;49.894;8.822;2023-04-15T22:25:43;8.70;;;5.30;;
20365;SDS011;10341;49.894;8.822;2023-04-15T22:31:03;7.03;;;4.65;;
20365;SDS011;10341;49.894;8.822;2023-04-15T22:36:23;9.35;;;4.60;;
20365;SDS011;10341;49.894;8.822;2023-04-15T22:41:43;8.52;;;4.95;;
20365;SDS011;10341;49.894;8.822;2023-04-15T22:47:03;9.38;;;5.15;;
20365;SDS011;10341;49.894;8.822;2023-04-15T22:52:23;8.70;;;5.13;;
20365;SDS011;10341;49.894;8.822;2023-04-15T22:57:43;6.30;;;4.32;;
20365;SDS011;10341;49.894;8.822;2023-04-15T23:03:02;7.80;;;4.95;;
20365;SDS011;10341;49.894;8.822;2023-04-15T23:08:22;6.97;;;4.43;;
20365;SDS011;10341;49.894;8.822;2023-04-15T23:13:41;7.88;;;5.38;;
20365;SDS011;10341;49.894;8.822;2023-04-15T23:19:00;8.27;;;4.97;;
20365;SDS011;10341;49.894;8.822;2023-04-15T23:24:20;10.32;;;5.93;;
20365;SDS011;10341;49.894;8.822;2023-04-15T23:29:39;10.02;;;5.70;;
20365;SDS011;10341;49.894;8.822;2023-04-15T23:34:59;8.27;;;5.10;;
20365;SDS011;10341;49.894;8.822;2023-04-15T23:40:18;9.02;;;5.00;;
20365;SDS011;10341;49.894;8.822;2023-04-15T23:45:38;9.63;;;6.05;;
20365;SDS011;10341;49.894;8.822;2023-04-15T23:50:58;9.98;;;5.97;;
20365;SDS011;10341;49.894;8.822;2023-04-15T23:56:19;11.00;;;6.30;;
